Terminal Aerodrome Forecast
Issued by NWS Shreveport, LA

Home | Current Version | Previous Version | Text Only | Print | Product List | Glossary On
Versions: 1 2 3 4 5 6 7 8 9 10 11 12 13 14 15 16 17 18 19
000
FTUS44 KSHV 272151 AAA
TAFELD
TAF AMD
KELD 272151Z 2722/2818 16012KT P6SM SCT030 BKN100
      TEMPO 2722/2801 16015G25KT -TSRA SCT008 OVC025CB
     FM280300 17007KT P6SM OVC015=

USA.gov is the U.S. government's official web portal to all federal, state and local government web resources and services.